Weather at Moshoeshoe I International Airport

Public forecast

Using degrees Celsius for public forecast. Weather courtesy of forecast.io.

Closest aviation weather report (METAR) to Moshoeshoe I International Airport

Report is more than 6 hours old.

Closest report is Bram Fischer International Airport, 69.1 nm (128.0 km) WNW.

2022/11/14 15:00 (retrieved 2 years ago)

FABL 141500Z 01008KT 9999 SCT025 25/06 Q1022 NOSIG

Closest aviation forecast (TAF) to Moshoeshoe I International Airport

Forecast is more than 12 hours old.

Closest forecast is King Shaka International Airport, 186.6 nm (345.5 km) E.

2023/02/22 18:00 (retrieved 1 year ago)

TAF FALE 221600Z 2218/2324 02007KT 9999 SCT028 BKN040 TX28/2312Z TN19/2304Z TEMPO 2218/2224 BKN015 BECMG 2222/2224 VRB03KT FM230800 04015KT CAVOK